PST,Max TemperatureF,Mean TemperatureF,Min TemperatureF,Max Dew PointF,MeanDew PointF,Min DewpointF,Max Humidity, Mean Humidity, Min Humidity, Max Sea Level PressureIn, Mean Sea Level PressureIn, Min Sea Level PressureIn, Max VisibilityMiles, Mean VisibilityMiles, Min VisibilityMiles, Max Wind SpeedMPH, Mean Wind SpeedMPH, Max Gust SpeedMPH,PrecipitationIn, CloudCover, Events, WindDirDegrees
2012-11-1,62,59,55,59,56,52,100,93,86,30.08,30.05,30.00,10,8,0,8,2,12,0.13,7,Fog-Rain,160
2012-11-2,62,54,46,55,51,46,100,82,64,30.12,30.08,30.05,10,4,0,14,4,14,0.00,2,Fog,231
2012-11-3,70,58,46,52,48,44,93,72,51,30.17,30.13,30.10,10,10,10,10,4,13,0.00,0,,84
2012-11-4,81,65,49,55,47,41,71,50,28,30.22,30.17,30.15,10,10,3,10,3,16,0.00,0,,67
2012-11-5,88,71,53,49,43,35,66,43,20,30.14,30.10,30.05,10,10,10,14,2,15,0.00,0,,86
2012-11-6,84,69,53,54,44,31,100,60,19,30.10,30.07,30.04,10,8,0,10,4,12,0.00,1,Fog,72
2012-11-7,61,56,50,54,52,48,100,88,75,30.12,30.06,30.01,10,7,0,12,5,15,0.00,7,Fog,200
2012-11-8,62,54,46,49,45,38,93,68,42,30.06,29.99,29.93,10,9,2,18,6,31,0.31,6,Rain,240
2012-11-9,56,50,44,44,42,39,93,74,55,30.06,30.00,29.93,10,9,2,25,6,33,0.26,4,Rain,223
2012-11-10,57,50,43,46,41,39,100,78,55,30.30,30.18,30.06,10,10,10,17,5,24,0.00,1,,217
2012-11-11,61,51,40,42,38,34,85,61,36,30.40,30.37,30.31,10,10,10,10,5,14,0.00,0,,69
2012-11-12,62,50,37,46,36,31,79,57,35,30.40,30.34,30.27,10,10,10,12,4,14,0.00,0,,76
2012-11-13,74,56,37,47,36,29,82,51,19,30.26,30.17,30.10,10,10,10,10,2,12,0.00,0,,77
2012-11-14,73,58,43,40,36,34,70,48,26,30.12,30.07,30.03,10,10,10,8,3,9,0.00,0,,42
2012-11-15,68,57,45,51,42,33,86,60,34,30.06,30.03,29.99,10,10,10,9,2,14,0.00,1,,53
2012-11-16,65,59,53,58,54,47,100,84,67,30.04,29.98,29.91,10,8,2,14,2,17,0.37,8,Rain,104
2012-11-17,62,59,55,59,56,50,100,89,77,30.07,29.97,29.87,10,6,2,15,6,20,0.12,7,Rain,195
2012-11-18,62,55,47,55,50,40,100,78,55,30.23,30.15,30.05,10,9,3,13,3,17,0.07,4,,254
2012-11-19,65,56,46,49,45,40,86,69,51,30.29,30.25,30.22,10,10,10,9,5,12,0.00,1,,76
2012-11-20,69,59,49,55,49,45,86,71,55,30.24,30.18,30.12,10,10,10,12,5,20,0.00,5,,113
2012-11-21,64,58,51,59,54,45,84,76,67,30.24,30.17,30.08,10,9,2,16,5,21,0.04,6,,233
2012-11-22,65,55,44,52,46,42,92,74,56,30.27,30.23,30.20,10,10,10,10,5,15,0.00,0,,80
2012-11-23,69,55,41,50,45,39,93,71,48,30.26,30.21,30.17,10,10,10,9,3,12,0.00,0,,116
2012-11-24,69,57,45,54,46,40,89,65,40,30.18,30.11,30.06,10,10,10,8,3,12,0.00,0,,78
2012-11-25,58,52,45,52,49,44,100,86,72,30.06,30.00,29.94,10,6,0,9,3,12,0.00,4,Fog,113
2012-11-26,62,52,41,51,46,40,100,82,64,30.13,30.04,29.96,10,6,0,15,5,21,0.00,4,Fog,103
2012-11-27,62,55,48,50,48,45,93,77,60,30.17,30.11,30.04,10,9,5,9,3,12,0.00,2,,93
2012-11-28,67,57,47,55,51,45,93,77,60,30.12,30.01,29.94,10,10,8,24,8,40,0.22,4,Rain,143
2012-11-29,66,58,49,55,50,45,83,71,58,30.12,30.06,29.99,10,10,10,16,7,25,0.02,4,,128
2012-11-30,66,59,52,59,55,50,93,78,63,30.11,29.98,29.90,10,6,1,26,9,37,1.95,7,Rain,161